sensor_id;sensor_type;location;lat;lon;timestamp;pressure;altitude;pressure_sealevel;temperature;humidity
21185;BME280;18176;49.502;11.754;2023-09-12T00:00:34;96718.16;;;22.65;70.50
21185;BME280;18176;49.502;11.754;2023-09-12T00:04:34;96705.75;;;22.64;70.32
21185;BME280;18176;49.502;11.754;2023-09-12T00:08:37;96699.00;;;22.53;70.74
21185;BME280;18176;49.502;11.754;2023-09-12T00:12:38;96718.56;;;22.59;71.00
21185;BME280;18176;49.502;11.754;2023-09-12T00:16:38;96720.78;;;22.26;71.99
21185;BME280;18176;49.502;11.754;2023-09-12T00:20:38;96721.41;;;22.23;72.03
21185;BME280;18176;49.502;11.754;2023-09-12T00:24:41;96712.38;;;22.27;71.77
21185;BME280;18176;49.502;11.754;2023-09-12T00:28:42;96712.06;;;22.29;71.29
21185;BME280;18176;49.502;11.754;2023-09-12T00:32:42;96712.03;;;22.20;71.46
21185;BME280;18176;49.502;11.754;2023-09-12T00:36:42;96705.66;;;22.16;71.80
21185;BME280;18176;49.502;11.754;2023-09-12T00:40:45;96712.47;;;22.14;71.90
21185;BME280;18176;49.502;11.754;2023-09-12T00:44:46;96703.16;;;21.98;72.25
21185;BME280;18176;49.502;11.754;2023-09-12T00:48:48;96694.94;;;22.03;71.64
21185;BME280;18176;49.502;11.754;2023-09-12T00:52:49;96634.69;;;21.41;72.46
21185;BME280;18176;49.502;11.754;2023-09-12T00:56:52;96692.44;;;21.84;71.94
21185;BME280;18176;49.502;11.754;2023-09-12T01:00:55;96686.81;;;21.81;71.64
21185;BME280;18176;49.502;11.754;2023-09-12T01:04:57;96659.84;;;21.58;71.95
21185;BME280;18176;49.502;11.754;2023-09-12T01:08:57;96692.91;;;21.50;72.45
21185;BME280;18176;49.502;11.754;2023-09-12T01:13:01;96687.28;;;21.38;73.65
21185;BME280;18176;49.502;11.754;2023-09-12T01:17:02;96671.88;;;21.75;71.48
21185;BME280;18176;49.502;11.754;2023-09-12T01:21:41;96680.59;;;21.36;73.09
21185;BME280;18176;49.502;11.754;2023-09-12T01:26:18;96685.94;;;21.49;73.00
21185;BME280;18176;49.502;11.754;2023-09-12T01:30:28;96680.19;;;21.42;72.68
21185;BME280;18176;49.502;11.754;2023-09-12T01:34:29;96684.19;;;21.45;72.38
21185;BME280;18176;49.502;11.754;2023-09-12T01:38:29;96675.75;;;21.24;72.73
21185;BME280;18176;49.502;11.754;2023-09-12T01:42:36;96680.28;;;21.15;72.95
21185;BME280;18176;49.502;11.754;2023-09-12T01:46:41;96693.75;;;21.15;72.96
21185;BME280;18176;49.502;11.754;2023-09-12T01:50:42;96686.16;;;21.04;73.25
21185;BME280;18176;49.502;11.754;2023-09-12T01:54:47;96680.06;;;21.12;72.88
21185;BME280;18176;49.502;11.754;2023-09-12T01:58:49;96689.28;;;21.33;71.79
21185;BME280;18176;49.502;11.754;2023-09-12T02:02:53;96675.66;;;21.29;70.96
21185;BME280;18176;49.502;11.754;2023-09-12T02:06:53;96684.59;;;21.38;71.15
21185;BME280;18176;49.502;11.754;2023-09-12T02:10:56;96682.72;;;21.25;71.57
21185;BME280;18176;49.502;11.754;2023-09-12T02:14:56;96691.72;;;20.93;72.79
21185;BME280;18176;49.502;11.754;2023-09-12T02:18:59;96695.25;;;21.08;71.92
21185;BME280;18176;49.502;11.754;2023-09-12T02:23:00;96682.25;;;21.10;71.90
21185;BME280;18176;49.502;11.754;2023-09-12T02:27:00;96679.47;;;21.01;71.14
21185;BME280;18176;49.502;11.754;2023-09-12T02:31:01;96676.88;;;20.96;71.54
21185;BME280;18176;49.502;11.754;2023-09-12T02:35:05;96672.00;;;20.71;71.94
21185;BME280;18176;49.502;11.754;2023-09-12T02:39:05;96690.28;;;20.74;72.29
21185;BME280;18176;49.502;11.754;2023-09-12T02:43:05;96691.84;;;20.75;72.40
21185;BME280;18176;49.502;11.754;2023-09-12T02:47:06;96684.09;;;20.60;72.41
21185;BME280;18176;49.502;11.754;2023-09-12T02:51:11;96698.63;;;20.59;72.71
21185;BME280;18176;49.502;11.754;2023-09-12T02:55:12;96698.72;;;20.54;73.25
21185;BME280;18176;49.502;11.754;2023-09-12T02:59:13;96701.03;;;20.60;72.60
21185;BME280;18176;49.502;11.754;2023-09-12T03:03:13;96700.31;;;20.27;73.75
21185;BME280;18176;49.502;11.754;2023-09-12T03:07:17;96713.09;;;20.17;73.89
21185;BME280;18176;49.502;11.754;2023-09-12T03:11:18;96698.44;;;20.09;73.93
21185;BME280;18176;49.502;11.754;2023-09-12T03:15:18;96699.53;;;20.08;73.97
21185;BME280;18176;49.502;11.754;2023-09-12T03:19:18;96698.38;;;20.14;73.80
21185;BME280;18176;49.502;11.754;2023-09-12T03:23:22;96698.44;;;20.09;74.05
21185;BME280;18176;49.502;11.754;2023-09-12T03:27:22;96694.53;;;20.02;73.75
21185;BME280;18176;49.502;11.754;2023-09-12T03:31:23;96701.72;;;20.06;74.08
21185;BME280;18176;49.502;11.754;2023-09-12T03:35:23;96691.03;;;20.01;73.78
21185;BME280;18176;49.502;11.754;2023-09-12T03:39:26;96698.97;;;19.79;74.26
21185;BME280;18176;49.502;11.754;2023-09-12T03:43:27;96705.41;;;19.78;74.25
21185;BME280;18176;49.502;11.754;2023-09-12T03:47:27;96697.69;;;19.90;73.88
21185;BME280;18176;49.502;11.754;2023-09-12T03:51:28;96643.84;;;19.63;73.36
21185;BME280;18176;49.502;11.754;2023-09-12T03:55:32;96685.56;;;19.93;73.15
21185;BME280;18176;49.502;11.754;2023-09-12T03:59:32;96682.31;;;20.09;72.54
21185;BME280;18176;49.502;11.754;2023-09-12T04:03:33;96668.63;;;19.92;72.45
21185;BME280;18176;49.502;11.754;2023-09-12T04:07:33;96692.66;;;20.02;72.16
21185;BME280;18176;49.502;11.754;2023-09-12T04:11:36;96694.00;;;19.86;73.00
21185;BME280;18176;49.502;11.754;2023-09-12T04:15:43;96677.06;;;19.53;73.87
21185;BME280;18176;49.502;11.754;2023-09-12T04:19:44;96691.41;;;19.63;73.37
21185;BME280;18176;49.502;11.754;2023-09-12T04:23:44;96708.19;;;19.73;73.57
21185;BME280;18176;49.502;11.754;2023-09-12T04:27:47;96700.78;;;19.65;73.46
21185;BME280;18176;49.502;11.754;2023-09-12T04:31:47;96677.09;;;19.67;72.90
21185;BME280;18176;49.502;11.754;2023-09-12T04:35:50;96680.47;;;19.59;72.81
21185;BME280;18176;49.502;11.754;2023-09-12T04:39:51;96698.03;;;19.70;73.16
21185;BME280;18176;49.502;11.754;2023-09-12T04:43:54;96685.59;;;19.74;72.49
21185;BME280;18176;49.502;11.754;2023-09-12T04:47:56;96698.88;;;19.84;72.36
21185;BME280;18176;49.502;11.754;2023-09-12T04:51:56;96700.22;;;20.00;72.28
21185;BME280;18176;49.502;11.754;2023-09-12T04:55:57;96697.56;;;20.14;71.88
21185;BME280;18176;49.502;11.754;2023-09-12T05:00:00;96695.34;;;20.02;72.34
21185;BME280;18176;49.502;11.754;2023-09-12T05:04:02;96704.59;;;20.10;72.09
21185;BME280;18176;49.502;11.754;2023-09-12T05:08:04;96699.72;;;19.98;72.23
21185;BME280;18176;49.502;11.754;2023-09-12T05:12:05;96702.91;;;20.00;71.78
21185;BME280;18176;49.502;11.754;2023-09-12T05:16:08;96706.44;;;20.14;70.77
21185;BME280;18176;49.502;11.754;2023-09-12T05:20:10;96696.41;;;20.34;69.77
21185;BME280;18176;49.502;11.754;2023-09-12T05:24:11;96707.41;;;20.37;69.40
21185;BME280;18176;49.502;11.754;2023-09-12T05:28:12;96719.75;;;20.52;68.79
21185;BME280;18176;49.502;11.754;2023-09-12T05:32:19;96710.41;;;20.63;68.59
21185;BME280;18176;49.502;11.754;2023-09-12T05:36:20;96710.38;;;20.49;69.17
21185;BME280;18176;49.502;11.754;2023-09-12T05:40:20;96707.50;;;20.73;68.07
21185;BME280;18176;49.502;11.754;2023-09-12T05:44:21;96726.56;;;20.63;68.63
21185;BME280;18176;49.502;11.754;2023-09-12T05:48:24;96715.56;;;20.46;69.23
21185;BME280;18176;49.502;11.754;2023-09-12T05:52:25;96704.81;;;20.46;68.62
21185;BME280;18176;49.502;11.754;2023-09-12T05:56:25;96725.84;;;20.71;68.89
21185;BME280;18176;49.502;11.754;2023-09-12T06:00:26;96733.53;;;20.64;69.89
21185;BME280;18176;49.502;11.754;2023-09-12T06:04:29;96722.75;;;20.91;68.71
21185;BME280;18176;49.502;11.754;2023-09-12T06:08:29;96729.34;;;21.12;68.19
21185;BME280;18176;49.502;11.754;2023-09-12T06:12:29;96717.59;;;21.08;68.55
21185;BME280;18176;49.502;11.754;2023-09-12T06:16:30;96723.56;;;21.19;69.02
21185;BME280;18176;49.502;11.754;2023-09-12T06:20:33;96718.75;;;21.29;68.09
21185;BME280;18176;49.502;11.754;2023-09-12T06:24:34;96708.22;;;21.41;68.15
21185;BME280;18176;49.502;11.754;2023-09-12T06:28:36;96732.81;;;21.76;67.86
21185;BME280;18176;49.502;11.754;2023-09-12T06:32:36;96711.97;;;21.90;67.15
21185;BME280;18176;49.502;11.754;2023-09-12T06:36:40;96738.53;;;21.96;67.85
21185;BME280;18176;49.502;11.754;2023-09-12T06:40:43;96736.78;;;22.22;66.88
21185;BME280;18176;49.502;11.754;2023-09-12T06:44:44;96714.03;;;22.15;67.44
21185;BME280;18176;49.502;11.754;2023-09-12T06:48:44;96735.03;;;22.49;66.52
21185;BME280;18176;49.502;11.754;2023-09-12T06:52:49;96738.78;;;22.61;66.29
21185;BME280;18176;49.502;11.754;2023-09-12T06:56:52;96743.34;;;22.91;64.94
21185;BME280;18176;49.502;11.754;2023-09-12T07:00:53;96730.66;;;23.00;65.32
21185;BME280;18176;49.502;11.754;2023-09-12T07:04:55;96723.69;;;22.99;65.35
21185;BME280;18176;49.502;11.754;2023-09-12T07:08:58;96717.34;;;23.13;65.57
21185;BME280;18176;49.502;11.754;2023-09-12T07:13:00;96741.63;;;23.52;65.40
21185;BME280;18176;49.502;11.754;2023-09-12T07:17:01;96739.88;;;23.73;65.12
21185;BME280;18176;49.502;11.754;2023-09-12T07:21:04;96744.50;;;23.98;64.18
21185;BME280;18176;49.502;11.754;2023-09-12T07:25:08;96737.44;;;24.31;63.34
21185;BME280;18176;49.502;11.754;2023-09-12T07:29:09;96734.16;;;24.64;62.29
21185;BME280;18176;49.502;11.754;2023-09-12T07:33:10;96718.88;;;25.05;61.38
21185;BME280;18176;49.502;11.754;2023-09-12T07:37:11;96727.69;;;25.52;60.59
21185;BME280;18176;49.502;11.754;2023-09-12T07:41:14;96728.03;;;25.71;59.46
21185;BME280;18176;49.502;11.754;2023-09-12T07:45:15;96722.66;;;25.84;59.73
21185;BME280;18176;49.502;11.754;2023-09-12T07:49:17;96714.75;;;25.78;58.46
21185;BME280;18176;49.502;11.754;2023-09-12T07:53:18;96729.47;;;26.43;57.28
21185;BME280;18176;49.502;11.754;2023-09-12T07:57:22;96724.28;;;26.62;56.56
21185;BME280;18176;49.502;11.754;2023-09-12T08:01:22;96725.03;;;27.32;55.68
21185;BME280;18176;49.502;11.754;2023-09-12T08:05:24;96730.34;;;27.40;54.53
21185;BME280;18176;49.502;11.754;2023-09-12T08:09:52;96735.66;;;27.61;54.18
21185;BME280;18176;49.502;11.754;2023-09-12T08:13:53;96728.19;;;28.25;52.67
21185;BME280;18176;49.502;11.754;2023-09-12T08:17:54;96722.03;;;28.72;50.90
21185;BME280;18176;49.502;11.754;2023-09-12T08:21:55;96735.66;;;29.34;49.98
21185;BME280;18176;49.502;11.754;2023-09-12T08:25:58;96737.44;;;29.42;49.40
21185;BME280;18176;49.502;11.754;2023-09-12T08:29:58;96733.34;;;29.86;48.78
21185;BME280;18176;49.502;11.754;2023-09-12T08:33:58;96733.56;;;30.35;47.63
21185;BME280;18176;49.502;11.754;2023-09-12T08:37:58;96725.56;;;30.46;46.74
21185;BME280;18176;49.502;11.754;2023-09-12T08:42:02;96714.69;;;30.72;46.89
21185;BME280;18176;49.502;11.754;2023-09-12T08:46:03;96708.44;;;30.72;46.56
21185;BME280;18176;49.502;11.754;2023-09-12T08:50:06;96696.25;;;30.88;46.00
21185;BME280;18176;49.502;11.754;2023-09-12T08:54:08;96727.38;;;31.52;45.28
21185;BME280;18176;49.502;11.754;2023-09-12T08:58:11;96718.81;;;31.86;44.75
21185;BME280;18176;49.502;11.754;2023-09-12T09:02:13;96720.16;;;32.29;44.60
21185;BME280;18176;49.502;11.754;2023-09-12T09:06:16;96713.94;;;32.73;42.86
21185;BME280;18176;49.502;11.754;2023-09-12T09:10:18;96703.31;;;33.08;42.05
21185;BME280;18176;49.502;11.754;2023-09-12T09:14:40;96715.28;;;33.40;41.66
21185;BME280;18176;49.502;11.754;2023-09-12T09:18:52;96704.22;;;33.94;39.76
21185;BME280;18176;49.502;11.754;2023-09-12T09:23:00;96704.00;;;34.35;39.69
21185;BME280;18176;49.502;11.754;2023-09-12T09:27:03;96701.72;;;34.86;38.55
21185;BME280;18176;49.502;11.754;2023-09-12T09:31:10;96711.00;;;34.22;38.75
21185;BME280;18176;49.502;11.754;2023-09-12T09:35:11;96698.97;;;35.00;39.03
21185;BME280;18176;49.502;11.754;2023-09-12T09:39:13;96692.97;;;35.76;38.12
21185;BME280;18176;49.502;11.754;2023-09-12T09:43:20;96683.66;;;36.39;36.47
21185;BME280;18176;49.502;11.754;2023-09-12T09:47:25;96697.88;;;36.99;36.15
21185;BME280;18176;49.502;11.754;2023-09-12T09:51:25;96691.03;;;35.76;36.90
21185;BME280;18176;49.502;11.754;2023-09-12T09:55:26;96690.28;;;36.55;35.87
21185;BME280;18176;49.502;11.754;2023-09-12T09:59:27;96681.28;;;37.81;34.50
21185;BME280;18176;49.502;11.754;2023-09-12T10:03:36;96678.16;;;38.13;34.10
21185;BME280;18176;49.502;11.754;2023-09-12T10:07:38;96677.94;;;38.57;32.84
21185;BME280;18176;49.502;11.754;2023-09-12T10:11:41;96676.44;;;38.79;32.84
21185;BME280;18176;49.502;11.754;2023-09-12T10:15:44;96674.66;;;40.56;30.80
21185;BME280;18176;49.502;11.754;2023-09-12T10:19:55;96684.88;;;40.04;29.62
21185;BME280;18176;49.502;11.754;2023-09-12T10:23:58;96675.81;;;40.75;29.55
21185;BME280;18176;49.502;11.754;2023-09-12T10:27:58;96670.59;;;41.70;28.63
21185;BME280;18176;49.502;11.754;2023-09-12T10:31:59;96660.94;;;41.46;29.04
21185;BME280;18176;49.502;11.754;2023-09-12T10:36:03;96662.28;;;41.54;28.44
21185;BME280;18176;49.502;11.754;2023-09-12T10:40:08;96648.06;;;41.20;28.97
21185;BME280;18176;49.502;11.754;2023-09-12T10:44:11;96653.50;;;42.13;27.90
21185;BME280;18176;49.502;11.754;2023-09-12T10:48:14;96644.72;;;42.65;26.87
21185;BME280;18176;49.502;11.754;2023-09-12T10:52:27;96655.03;;;43.15;26.25
21185;BME280;18176;49.502;11.754;2023-09-12T10:56:28;96648.25;;;42.15;27.11
21185;BME280;18176;49.502;11.754;2023-09-12T11:00:30;96649.28;;;41.64;28.06
21185;BME280;18176;49.502;11.754;2023-09-12T11:04:33;96646.59;;;41.76;27.76
21185;BME280;18176;49.502;11.754;2023-09-12T11:08:40;96633.56;;;41.73;28.75
21185;BME280;18176;49.502;11.754;2023-09-12T11:12:41;96620.88;;;41.85;28.04
21185;BME280;18176;49.502;11.754;2023-09-12T11:16:42;96637.06;;;40.16;28.20
21185;BME280;18176;49.502;11.754;2023-09-12T11:20:52;96634.09;;;41.68;26.96
21185;BME280;18176;49.502;11.754;2023-09-12T11:24:55;96628.00;;;42.90;24.72
21185;BME280;18176;49.502;11.754;2023-09-12T11:28:56;96629.44;;;42.44;26.31
21185;BME280;18176;49.502;11.754;2023-09-12T11:32:57;96624.78;;;41.87;25.87
21185;BME280;18176;49.502;11.754;2023-09-12T11:36:58;96626.34;;;41.88;26.12
21185;BME280;18176;49.502;11.754;2023-09-12T11:41:04;96622.91;;;41.11;26.87
21185;BME280;18176;49.502;11.754;2023-09-12T11:45:09;96603.97;;;40.57;25.94
21185;BME280;18176;49.502;11.754;2023-09-12T11:49:10;96611.91;;;41.65;24.02
21185;BME280;18176;49.502;11.754;2023-09-12T11:53:12;96612.31;;;41.06;24.07
21185;BME280;18176;49.502;11.754;2023-09-12T11:57:16;96613.56;;;40.89;25.43
21185;BME280;18176;49.502;11.754;2023-09-12T12:01:17;96606.97;;;43.45;24.07
21185;BME280;18176;49.502;11.754;2023-09-12T12:05:18;96613.94;;;42.81;23.01
21185;BME280;18176;49.502;11.754;2023-09-12T12:09:19;96600.22;;;42.74;23.17
21185;BME280;18176;49.502;11.754;2023-09-12T12:13:22;96599.56;;;44.16;21.48
21185;BME280;18176;49.502;11.754;2023-09-12T12:17:22;96606.50;;;44.82;20.94
21185;BME280;18176;49.502;11.754;2023-09-12T12:21:23;96598.06;;;44.33;20.99
21185;BME280;18176;49.502;11.754;2023-09-12T12:25:25;96607.53;;;41.80;23.09
21185;BME280;18176;49.502;11.754;2023-09-12T12:29:28;96601.19;;;41.92;22.88
21185;BME280;18176;49.502;11.754;2023-09-12T12:33:30;96576.56;;;42.79;22.61
21185;BME280;18176;49.502;11.754;2023-09-12T12:37:54;96586.78;;;41.68;23.33
21185;BME280;18176;49.502;11.754;2023-09-12T12:42:05;96597.66;;;41.34;23.76
21185;BME280;18176;49.502;11.754;2023-09-12T12:46:11;96597.50;;;41.25;23.26
21185;BME280;18176;49.502;11.754;2023-09-12T12:50:12;96590.78;;;42.09;23.22
21185;BME280;18176;49.502;11.754;2023-09-12T12:54:15;96565.69;;;42.46;22.14
21185;BME280;18176;49.502;11.754;2023-09-12T12:58:15;96582.84;;;42.45;22.65
21185;BME280;18176;49.502;11.754;2023-09-12T13:02:18;96578.91;;;42.05;22.89
21185;BME280;18176;49.502;11.754;2023-09-12T13:06:20;96584.31;;;41.29;22.88
21185;BME280;18176;49.502;11.754;2023-09-12T13:10:21;96571.34;;;41.67;22.04
21185;BME280;18176;49.502;11.754;2023-09-12T13:14:22;96581.13;;;41.43;23.68
21185;BME280;18176;49.502;11.754;2023-09-12T13:18:31;96571.13;;;41.01;23.55
21185;BME280;18176;49.502;11.754;2023-09-12T13:22:31;96576.25;;;40.38;24.44
21185;BME280;18176;49.502;11.754;2023-09-12T13:26:31;96559.00;;;40.62;24.84
21185;BME280;18176;49.502;11.754;2023-09-12T13:30:32;96557.44;;;40.78;24.72
21185;BME280;18176;49.502;11.754;2023-09-12T13:34:35;96579.81;;;40.22;24.79
21185;BME280;18176;49.502;11.754;2023-09-12T13:38:35;96577.31;;;40.60;25.01
21185;BME280;18176;49.502;11.754;2023-09-12T13:42:35;96564.47;;;39.98;25.31
21185;BME280;18176;49.502;11.754;2023-09-12T13:46:36;96566.81;;;40.35;25.33
21185;BME280;18176;49.502;11.754;2023-09-12T13:50:39;96545.28;;;40.72;24.69
21185;BME280;18176;49.502;11.754;2023-09-12T13:54:40;96562.66;;;39.52;26.18
21185;BME280;18176;49.502;11.754;2023-09-12T13:58:41;96548.34;;;39.54;25.79
21185;BME280;18176;49.502;11.754;2023-09-12T14:02:43;96552.72;;;39.55;25.77
21185;BME280;18176;49.502;11.754;2023-09-12T14:06:47;96542.22;;;39.82;25.53
21185;BME280;18176;49.502;11.754;2023-09-12T14:10:48;96535.41;;;40.54;24.80
21185;BME280;18176;49.502;11.754;2023-09-12T14:14:50;96548.22;;;40.16;25.72
21185;BME280;18176;49.502;11.754;2023-09-12T14:19:03;96543.72;;;40.22;26.48
21185;BME280;18176;49.502;11.754;2023-09-12T14:23:06;96531.69;;;41.06;25.12
21185;BME280;18176;49.502;11.754;2023-09-12T14:27:06;96535.97;;;42.31;23.88
21185;BME280;18176;49.502;11.754;2023-09-12T14:31:22;96528.47;;;42.03;23.85
21185;BME280;18176;49.502;11.754;2023-09-12T14:35:23;96530.16;;;41.87;24.13
21185;BME280;18176;49.502;11.754;2023-09-12T14:39:26;96532.50;;;42.52;23.61
21185;BME280;18176;49.502;11.754;2023-09-12T14:43:26;96524.09;;;42.77;22.72
21185;BME280;18176;49.502;11.754;2023-09-12T14:47:26;96525.75;;;42.75;22.76
21185;BME280;18176;49.502;11.754;2023-09-12T14:51:27;96505.91;;;42.73;22.32
21185;BME280;18176;49.502;11.754;2023-09-12T14:55:33;96509.69;;;42.32;23.12
21185;BME280;18176;49.502;11.754;2023-09-12T14:59:33;96511.78;;;42.87;22.33
21185;BME280;18176;49.502;11.754;2023-09-12T15:03:34;96511.59;;;42.69;22.31
21185;BME280;18176;49.502;11.754;2023-09-12T15:07:35;96522.25;;;42.83;22.28
21185;BME280;18176;49.502;11.754;2023-09-12T15:11:39;96514.69;;;42.96;21.40
21185;BME280;18176;49.502;11.754;2023-09-12T15:15:39;96516.94;;;42.76;21.43
21185;BME280;18176;49.502;11.754;2023-09-12T15:19:39;96503.00;;;43.10;22.02
21185;BME280;18176;49.502;11.754;2023-09-12T15:23:40;96508.75;;;42.35;22.22
21185;BME280;18176;49.502;11.754;2023-09-12T15:27:43;96511.50;;;42.73;21.92
21185;BME280;18176;49.502;11.754;2023-09-12T15:31:43;96498.31;;;42.14;22.21
21185;BME280;18176;49.502;11.754;2023-09-12T15:35:43;96513.56;;;41.84;22.67
21185;BME280;18176;49.502;11.754;2023-09-12T15:39:44;96503.69;;;40.84;23.58
21185;BME280;18176;49.502;11.754;2023-09-12T15:43:46;96517.84;;;40.57;23.55
21185;BME280;18176;49.502;11.754;2023-09-12T15:48:07;96522.88;;;40.30;24.19
21185;BME280;18176;49.502;11.754;2023-09-12T15:52:07;96523.09;;;39.87;25.12
21185;BME280;18176;49.502;11.754;2023-09-12T15:56:07;96526.25;;;39.30;25.26
21185;BME280;18176;49.502;11.754;2023-09-12T16:00:13;96525.00;;;38.92;25.88
21185;BME280;18176;49.502;11.754;2023-09-12T16:04:13;96518.78;;;38.15;26.74
21185;BME280;18176;49.502;11.754;2023-09-12T16:08:14;96516.94;;;37.18;27.82
21185;BME280;18176;49.502;11.754;2023-09-12T16:12:14;96518.28;;;37.03;28.75
21185;BME280;18176;49.502;11.754;2023-09-12T16:16:17;96520.16;;;37.09;29.19
21185;BME280;18176;49.502;11.754;2023-09-12T16:20:17;96518.94;;;37.48;29.79
21185;BME280;18176;49.502;11.754;2023-09-12T16:24:18;96509.84;;;37.77;28.60
21185;BME280;18176;49.502;11.754;2023-09-12T16:28:20;96499.94;;;38.07;28.20
21185;BME280;18176;49.502;11.754;2023-09-12T16:32:23;96499.34;;;38.19;27.46
21185;BME280;18176;49.502;11.754;2023-09-12T16:36:23;96492.63;;;38.20;27.80
21185;BME280;18176;49.502;11.754;2023-09-12T16:40:24;96478.44;;;37.64;28.62
21185;BME280;18176;49.502;11.754;2023-09-12T16:44:24;96488.00;;;36.89;30.81
21185;BME280;18176;49.502;11.754;2023-09-12T16:48:27;96492.75;;;36.03;33.18
21185;BME280;18176;49.502;11.754;2023-09-12T16:52:29;96503.31;;;35.50;34.39
21185;BME280;18176;49.502;11.754;2023-09-12T16:56:30;96500.78;;;34.76;35.05
21185;BME280;18176;49.502;11.754;2023-09-12T17:00:30;96505.13;;;34.03;36.85
21185;BME280;18176;49.502;11.754;2023-09-12T17:04:34;96516.81;;;33.64;36.87
21185;BME280;18176;49.502;11.754;2023-09-12T17:08:36;96511.59;;;33.31;37.88
21185;BME280;18176;49.502;11.754;2023-09-12T17:12:37;96514.50;;;32.87;38.33
21185;BME280;18176;49.502;11.754;2023-09-12T17:16:37;96511.97;;;32.58;38.32
21185;BME280;18176;49.502;11.754;2023-09-12T17:20:40;96502.75;;;32.32;39.17
21185;BME280;18176;49.502;11.754;2023-09-12T17:24:41;96496.88;;;31.90;39.84
21185;BME280;18176;49.502;11.754;2023-09-12T17:28:41;96498.13;;;31.56;40.83
21185;BME280;18176;49.502;11.754;2023-09-12T17:32:42;96489.22;;;31.33;42.15
21185;BME280;18176;49.502;11.754;2023-09-12T17:36:45;96495.94;;;31.05;42.67
21185;BME280;18176;49.502;11.754;2023-09-12T17:40:45;96486.91;;;30.75;43.52
21185;BME280;18176;49.502;11.754;2023-09-12T17:44:45;96477.91;;;30.45;44.00
21185;BME280;18176;49.502;11.754;2023-09-12T17:48:46;96505.44;;;30.33;46.13
21185;BME280;18176;49.502;11.754;2023-09-12T17:52:49;96474.81;;;29.98;46.36
21185;BME280;18176;49.502;11.754;2023-09-12T17:56:49;96520.19;;;30.06;46.03
21185;BME280;18176;49.502;11.754;2023-09-12T18:00:58;96530.75;;;29.84;46.27
21185;BME280;18176;49.502;11.754;2023-09-12T18:04:59;96528.81;;;29.66;46.57
21185;BME280;18176;49.502;11.754;2023-09-12T18:09:05;96545.16;;;29.62;47.75
21185;BME280;18176;49.502;11.754;2023-09-12T18:13:05;96526.19;;;29.50;50.21
21185;BME280;18176;49.502;11.754;2023-09-12T18:17:06;96550.47;;;29.55;50.06
21185;BME280;18176;49.502;11.754;2023-09-12T18:21:08;96548.31;;;29.45;49.54
21185;BME280;18176;49.502;11.754;2023-09-12T18:25:13;96557.53;;;29.18;50.94
21185;BME280;18176;49.502;11.754;2023-09-12T18:29:15;96568.53;;;29.06;51.28
21185;BME280;18176;49.502;11.754;2023-09-12T18:33:16;96569.81;;;28.93;51.70
21185;BME280;18176;49.502;11.754;2023-09-12T18:37:17;96578.94;;;28.66;52.79
21185;BME280;18176;49.502;11.754;2023-09-12T18:41:20;96597.50;;;28.60;54.44
21185;BME280;18176;49.502;11.754;2023-09-12T18:45:20;96594.66;;;28.57;54.79
21185;BME280;18176;49.502;11.754;2023-09-12T18:49:21;96589.84;;;28.66;54.24
21185;BME280;18176;49.502;11.754;2023-09-12T18:53:22;96576.56;;;28.48;54.40
21185;BME280;18176;49.502;11.754;2023-09-12T18:57:25;96585.63;;;28.52;54.18
21185;BME280;18176;49.502;11.754;2023-09-12T19:01:26;96586.50;;;28.57;53.57
21185;BME280;18176;49.502;11.754;2023-09-12T19:05:27;96577.53;;;28.40;53.73
21185;BME280;18176;49.502;11.754;2023-09-12T19:09:27;96576.13;;;28.31;53.62
21185;BME280;18176;49.502;11.754;2023-09-12T19:13:30;96586.66;;;28.32;52.73
21185;BME280;18176;49.502;11.754;2023-09-12T19:17:31;96585.97;;;28.35;53.72
21185;BME280;18176;49.502;11.754;2023-09-12T19:21:31;96571.91;;;28.33;53.22
21185;BME280;18176;49.502;11.754;2023-09-12T19:25:33;96565.59;;;28.29;53.84
21185;BME280;18176;49.502;11.754;2023-09-12T19:29:49;96579.03;;;28.38;53.20
21185;BME280;18176;49.502;11.754;2023-09-12T19:33:50;96559.06;;;28.18;52.87
21185;BME280;18176;49.502;11.754;2023-09-12T19:37:50;96580.16;;;28.21;53.81
21185;BME280;18176;49.502;11.754;2023-09-12T19:41:53;96604.44;;;28.26;54.80
21185;BME280;18176;49.502;11.754;2023-09-12T19:46:01;96619.03;;;28.34;55.00
21185;BME280;18176;49.502;11.754;2023-09-12T19:50:02;96616.91;;;28.27;54.94
21185;BME280;18176;49.502;11.754;2023-09-12T19:54:03;96626.75;;;28.16;55.26
21185;BME280;18176;49.502;11.754;2023-09-12T19:58:04;96626.66;;;28.13;55.91
21185;BME280;18176;49.502;11.754;2023-09-12T20:02:08;96612.06;;;28.05;55.82
21185;BME280;18176;49.502;11.754;2023-09-12T20:06:08;96599.72;;;27.96;55.65
21185;BME280;18176;49.502;11.754;2023-09-12T20:10:09;96615.66;;;28.09;56.08
21185;BME280;18176;49.502;11.754;2023-09-12T20:14:10;96577.13;;;27.95;55.63
21185;BME280;18176;49.502;11.754;2023-09-12T20:18:14;96597.75;;;28.08;55.88
21185;BME280;18176;49.502;11.754;2023-09-12T20:22:14;96590.63;;;28.04;54.19
21185;BME280;18176;49.502;11.754;2023-09-12T20:26:14;96596.25;;;28.26;54.02
21185;BME280;18176;49.502;11.754;2023-09-12T20:30:16;96578.41;;;28.29;54.59
21185;BME280;18176;49.502;11.754;2023-09-12T20:34:21;96589.31;;;28.44;55.14
21185;BME280;18176;49.502;11.754;2023-09-12T20:38:21;96576.75;;;28.24;57.21
21185;BME280;18176;49.502;11.754;2023-09-12T20:42:21;96555.94;;;27.89;58.34
21185;BME280;18176;49.502;11.754;2023-09-12T20:46:22;96569.53;;;27.73;58.82
21185;BME280;18176;49.502;11.754;2023-09-12T20:50:28;96571.44;;;27.57;60.67
21185;BME280;18176;49.502;11.754;2023-09-12T20:54:29;96566.16;;;27.08;61.29
21185;BME280;18176;49.502;11.754;2023-09-12T20:58:29;96573.66;;;26.99;63.19
21185;BME280;18176;49.502;11.754;2023-09-12T21:02:30;96574.59;;;26.91;62.93
21185;BME280;18176;49.502;11.754;2023-09-12T21:06:33;96585.69;;;26.86;62.86